sensor_id;sensor_type;location;lat;lon;timestamp;P1;durP1;ratioP1;P2;durP2;ratioP2
15273;SDS011;7738;49.532;11.156;2022-11-20T00:02:14;19.47;;;10.73;;
15273;SDS011;7738;49.532;11.156;2022-11-20T00:04:44;17.73;;;11.27;;
15273;SDS011;7738;49.532;11.156;2022-11-20T00:07:15;23.13;;;11.87;;
15273;SDS011;7738;49.532;11.156;2022-11-20T00:09:45;26.10;;;12.50;;
15273;SDS011;7738;49.532;11.156;2022-11-20T00:12:15;23.57;;;12.63;;
15273;SDS011;7738;49.532;11.156;2022-11-20T00:14:46;19.60;;;11.40;;
15273;SDS011;7738;49.532;11.156;2022-11-20T00:17:19;18.27;;;10.57;;
15273;SDS011;7738;49.532;11.156;2022-11-20T00:19:49;21.47;;;11.67;;
15273;SDS011;7738;49.532;11.156;2022-11-20T00:22:19;23.87;;;12.73;;
15273;SDS011;7738;49.532;11.156;2022-11-20T00:24:50;21.40;;;11.17;;
15273;SDS011;7738;49.532;11.156;2022-11-20T00:27:20;26.23;;;12.53;;
15273;SDS011;7738;49.532;11.156;2022-11-20T00:29:50;23.00;;;13.37;;
15273;SDS011;7738;49.532;11.156;2022-11-20T00:32:23;21.13;;;11.67;;
15273;SDS011;7738;49.532;11.156;2022-11-20T00:34:54;20.90;;;11.17;;
15273;SDS011;7738;49.532;11.156;2022-11-20T00:37:24;22.53;;;11.83;;
15273;SDS011;7738;49.532;11.156;2022-11-20T00:39:54;22.00;;;10.83;;
15273;SDS011;7738;49.532;11.156;2022-11-20T00:42:25;22.13;;;12.13;;
15273;SDS011;7738;49.532;11.156;2022-11-20T00:44:55;25.10;;;11.83;;
15273;SDS011;7738;49.532;11.156;2022-11-20T00:47:28;24.03;;;12.97;;
15273;SDS011;7738;49.532;11.156;2022-11-20T00:49:59;23.90;;;12.50;;
15273;SDS011;7738;49.532;11.156;2022-11-20T00:52:29;25.43;;;11.93;;
15273;SDS011;7738;49.532;11.156;2022-11-20T00:54:59;30.17;;;13.13;;
15273;SDS011;7738;49.532;11.156;2022-11-20T00:57:29;24.67;;;12.53;;
15273;SDS011;7738;49.532;11.156;2022-11-20T01:00:00;24.50;;;12.63;;
15273;SDS011;7738;49.532;11.156;2022-11-20T01:02:33;25.73;;;12.40;;
15273;SDS011;7738;49.532;11.156;2022-11-20T01:05:04;21.80;;;11.47;;
15273;SDS011;7738;49.532;11.156;2022-11-20T01:07:35;29.67;;;13.83;;
15273;SDS011;7738;49.532;11.156;2022-11-20T01:10:06;24.90;;;13.10;;
15273;SDS011;7738;49.532;11.156;2022-11-20T01:12:36;27.13;;;13.43;;
15273;SDS011;7738;49.532;11.156;2022-11-20T01:15:07;24.60;;;12.90;;
15273;SDS011;7738;49.532;11.156;2022-11-20T01:17:40;24.30;;;12.57;;
15273;SDS011;7738;49.532;11.156;2022-11-20T01:20:11;25.50;;;13.40;;
15273;SDS011;7738;49.532;11.156;2022-11-20T01:22:41;27.60;;;12.50;;
15273;SDS011;7738;49.532;11.156;2022-11-20T01:25:11;24.73;;;12.20;;
15273;SDS011;7738;49.532;11.156;2022-11-20T01:27:42;26.60;;;13.40;;
15273;SDS011;7738;49.532;11.156;2022-11-20T01:30:12;29.80;;;12.50;;
15273;SDS011;7738;49.532;11.156;2022-11-20T01:32:45;25.90;;;13.60;;
15273;SDS011;7738;49.532;11.156;2022-11-20T01:35:16;25.53;;;12.63;;
15273;SDS011;7738;49.532;11.156;2022-11-20T01:37:46;28.47;;;13.17;;
15273;SDS011;7738;49.532;11.156;2022-11-20T01:40:16;22.90;;;11.60;;
15273;SDS011;7738;49.532;11.156;2022-11-20T01:43:11;25.80;;;12.40;;
15273;SDS011;7738;49.532;11.156;2022-11-20T01:45:59;22.23;;;11.13;;
15273;SDS011;7738;49.532;11.156;2022-11-20T01:48:47;24.90;;;11.50;;
15273;SDS011;7738;49.532;11.156;2022-11-20T01:51:22;26.73;;;12.33;;
15273;SDS011;7738;49.532;11.156;2022-11-20T01:53:57;21.83;;;12.53;;
15273;SDS011;7738;49.532;11.156;2022-11-20T01:56:30;24.67;;;13.20;;
15273;SDS011;7738;49.532;11.156;2022-11-20T01:59:05;28.13;;;13.50;;
15273;SDS011;7738;49.532;11.156;2022-11-20T02:01:36;26.00;;;13.37;;
15273;SDS011;7738;49.532;11.156;2022-11-20T02:04:09;26.50;;;13.63;;
15273;SDS011;7738;49.532;11.156;2022-11-20T02:06:41;26.43;;;12.20;;
15273;SDS011;7738;49.532;11.156;2022-11-20T02:09:15;24.20;;;11.57;;
15273;SDS011;7738;49.532;11.156;2022-11-20T02:11:46;23.00;;;12.67;;
15273;SDS011;7738;49.532;11.156;2022-11-20T02:14:16;21.17;;;11.70;;
15273;SDS011;7738;49.532;11.156;2022-11-20T02:16:45;26.87;;;13.03;;
15273;SDS011;7738;49.532;11.156;2022-11-20T02:19:20;33.10;;;15.13;;
15273;SDS011;7738;49.532;11.156;2022-11-20T02:21:55;29.50;;;13.67;;
15273;SDS011;7738;49.532;11.156;2022-11-20T02:24:32;22.63;;;11.40;;
15273;SDS011;7738;49.532;11.156;2022-11-20T02:27:03;25.75;;;12.07;;
15273;SDS011;7738;49.532;11.156;2022-11-20T02:29:37;20.60;;;11.55;;
15273;SDS011;7738;49.532;11.156;2022-11-20T02:32:17;23.93;;;13.33;;
15273;SDS011;7738;49.532;11.156;2022-11-20T02:34:47;23.43;;;12.03;;
15273;SDS011;7738;49.532;11.156;2022-11-20T02:37:18;24.27;;;12.07;;
15273;SDS011;7738;49.532;11.156;2022-11-20T02:39:52;24.80;;;13.33;;
15273;SDS011;7738;49.532;11.156;2022-11-20T02:42:22;27.60;;;12.20;;
15273;SDS011;7738;49.532;11.156;2022-11-20T02:44:52;23.23;;;12.13;;
15273;SDS011;7738;49.532;11.156;2022-11-20T02:47:23;23.83;;;12.43;;
15273;SDS011;7738;49.532;11.156;2022-11-20T02:49:53;23.37;;;12.40;;
15273;SDS011;7738;49.532;11.156;2022-11-20T02:52:23;24.30;;;12.47;;
15273;SDS011;7738;49.532;11.156;2022-11-20T02:54:56;28.43;;;13.00;;
15273;SDS011;7738;49.532;11.156;2022-11-20T02:57:27;30.10;;;13.70;;
15273;SDS011;7738;49.532;11.156;2022-11-20T02:59:57;27.30;;;12.90;;
15273;SDS011;7738;49.532;11.156;2022-11-20T03:02:29;27.67;;;13.77;;
15273;SDS011;7738;49.532;11.156;2022-11-20T03:04:59;31.23;;;13.43;;
15273;SDS011;7738;49.532;11.156;2022-11-20T03:07:29;25.43;;;12.93;;
15273;SDS011;7738;49.532;11.156;2022-11-20T03:10:02;28.43;;;12.87;;
15273;SDS011;7738;49.532;11.156;2022-11-20T03:12:33;25.83;;;12.15;;
15273;SDS011;7738;49.532;11.156;2022-11-20T03:15:04;24.20;;;12.97;;
15273;SDS011;7738;49.532;11.156;2022-11-20T03:17:34;30.30;;;13.90;;
15273;SDS011;7738;49.532;11.156;2022-11-20T03:20:05;23.23;;;12.90;;
15273;SDS011;7738;49.532;11.156;2022-11-20T03:22:36;27.50;;;13.03;;
15273;SDS011;7738;49.532;11.156;2022-11-20T03:25:09;21.77;;;12.23;;
15273;SDS011;7738;49.532;11.156;2022-11-20T03:27:39;23.77;;;11.73;;
15273;SDS011;7738;49.532;11.156;2022-11-20T03:30:10;22.77;;;12.57;;
15273;SDS011;7738;49.532;11.156;2022-11-20T03:32:40;24.00;;;12.57;;
15273;SDS011;7738;49.532;11.156;2022-11-20T03:35:10;24.27;;;13.17;;
15273;SDS011;7738;49.532;11.156;2022-11-20T03:37:41;25.07;;;13.30;;
15273;SDS011;7738;49.532;11.156;2022-11-20T03:40:14;25.33;;;13.30;;
15273;SDS011;7738;49.532;11.156;2022-11-20T03:42:45;25.87;;;13.30;;
15273;SDS011;7738;49.532;11.156;2022-11-20T03:45:15;26.40;;;13.83;;
15273;SDS011;7738;49.532;11.156;2022-11-20T03:47:46;25.80;;;13.90;;
15273;SDS011;7738;49.532;11.156;2022-11-20T03:50:16;25.17;;;12.63;;
15273;SDS011;7738;49.532;11.156;2022-11-20T03:52:47;24.60;;;12.43;;
15273;SDS011;7738;49.532;11.156;2022-11-20T03:55:20;21.80;;;12.27;;
15273;SDS011;7738;49.532;11.156;2022-11-20T03:57:50;28.47;;;13.83;;
15273;SDS011;7738;49.532;11.156;2022-11-20T04:00:20;26.37;;;13.93;;
15273;SDS011;7738;49.532;11.156;2022-11-20T04:02:50;27.33;;;13.63;;
15273;SDS011;7738;49.532;11.156;2022-11-20T04:05:20;22.93;;;12.77;;
15273;SDS011;7738;49.532;11.156;2022-11-20T04:07:50;31.83;;;13.37;;
15273;SDS011;7738;49.532;11.156;2022-11-20T04:10:23;28.07;;;12.90;;
15273;SDS011;7738;49.532;11.156;2022-11-20T04:12:53;27.47;;;13.03;;
15273;SDS011;7738;49.532;11.156;2022-11-20T04:15:24;27.90;;;14.30;;
15273;SDS011;7738;49.532;11.156;2022-11-20T04:17:54;25.10;;;13.83;;
15273;SDS011;7738;49.532;11.156;2022-11-20T04:20:24;27.30;;;13.43;;
15273;SDS011;7738;49.532;11.156;2022-11-20T04:22:54;29.13;;;13.60;;
15273;SDS011;7738;49.532;11.156;2022-11-20T04:25:27;31.87;;;14.20;;
15273;SDS011;7738;49.532;11.156;2022-11-20T04:27:57;30.03;;;14.03;;
15273;SDS011;7738;49.532;11.156;2022-11-20T04:30:27;26.90;;;13.47;;
15273;SDS011;7738;49.532;11.156;2022-11-20T04:32:58;30.07;;;13.97;;
15273;SDS011;7738;49.532;11.156;2022-11-20T04:35:28;27.10;;;13.30;;
15273;SDS011;7738;49.532;11.156;2022-11-20T04:37:58;28.00;;;12.77;;
15273;SDS011;7738;49.532;11.156;2022-11-20T04:40:31;29.40;;;13.77;;
15273;SDS011;7738;49.532;11.156;2022-11-20T04:43:01;24.60;;;12.20;;
15273;SDS011;7738;49.532;11.156;2022-11-20T04:45:31;31.87;;;15.00;;
15273;SDS011;7738;49.532;11.156;2022-11-20T04:48:01;24.87;;;12.30;;
15273;SDS011;7738;49.532;11.156;2022-11-20T04:50:32;27.17;;;13.23;;
15273;SDS011;7738;49.532;11.156;2022-11-20T04:53:02;28.40;;;14.17;;
15273;SDS011;7738;49.532;11.156;2022-11-20T04:55:35;29.40;;;14.27;;
15273;SDS011;7738;49.532;11.156;2022-11-20T04:58:05;26.33;;;13.67;;
15273;SDS011;7738;49.532;11.156;2022-11-20T05:00:35;31.23;;;14.57;;
15273;SDS011;7738;49.532;11.156;2022-11-20T05:03:05;33.80;;;14.13;;
15273;SDS011;7738;49.532;11.156;2022-11-20T05:05:35;26.87;;;13.93;;
15273;SDS011;7738;49.532;11.156;2022-11-20T05:08:06;30.90;;;12.77;;
15273;SDS011;7738;49.532;11.156;2022-11-20T05:10:39;28.97;;;14.13;;
15273;SDS011;7738;49.532;11.156;2022-11-20T05:13:09;31.27;;;12.30;;
15273;SDS011;7738;49.532;11.156;2022-11-20T05:15:39;29.33;;;14.10;;
15273;SDS011;7738;49.532;11.156;2022-11-20T05:18:09;26.50;;;14.17;;
15273;SDS011;7738;49.532;11.156;2022-11-20T05:20:39;32.70;;;14.10;;
15273;SDS011;7738;49.532;11.156;2022-11-20T05:23:10;27.13;;;11.87;;
15273;SDS011;7738;49.532;11.156;2022-11-20T05:25:43;30.23;;;14.97;;
15273;SDS011;7738;49.532;11.156;2022-11-20T05:28:13;32.63;;;12.90;;
15273;SDS011;7738;49.532;11.156;2022-11-20T05:30:43;29.37;;;13.93;;
15273;SDS011;7738;49.532;11.156;2022-11-20T05:33:13;28.57;;;13.23;;
15273;SDS011;7738;49.532;11.156;2022-11-20T05:35:44;25.73;;;12.67;;
15273;SDS011;7738;49.532;11.156;2022-11-20T05:38:14;27.63;;;12.23;;
15273;SDS011;7738;49.532;11.156;2022-11-20T05:40:47;30.80;;;14.27;;
15273;SDS011;7738;49.532;11.156;2022-11-20T05:43:17;27.87;;;13.37;;
15273;SDS011;7738;49.532;11.156;2022-11-20T05:45:51;30.30;;;14.30;;
15273;SDS011;7738;49.532;11.156;2022-11-20T05:48:22;30.40;;;15.32;;
15273;SDS011;7738;49.532;11.156;2022-11-20T05:50:52;26.90;;;13.23;;
15273;SDS011;7738;49.532;11.156;2022-11-20T05:53:22;30.60;;;14.57;;
15273;SDS011;7738;49.532;11.156;2022-11-20T05:55:59;24.27;;;12.17;;
15273;SDS011;7738;49.532;11.156;2022-11-20T05:58:30;29.47;;;15.00;;
15273;SDS011;7738;49.532;11.156;2022-11-20T06:01:05;30.70;;;13.87;;
15273;SDS011;7738;49.532;11.156;2022-11-20T06:03:36;26.80;;;13.73;;
15273;SDS011;7738;49.532;11.156;2022-11-20T06:06:07;32.77;;;14.30;;
15273;SDS011;7738;49.532;11.156;2022-11-20T06:08:37;26.60;;;13.13;;
15273;SDS011;7738;49.532;11.156;2022-11-20T06:11:10;22.40;;;12.73;;
15273;SDS011;7738;49.532;11.156;2022-11-20T06:16:13;28.87;;;11.87;;
15273;SDS011;7738;49.532;11.156;2022-11-20T06:18:45;28.97;;;13.20;;
15273;SDS011;7738;49.532;11.156;2022-11-20T06:21:16;29.83;;;13.63;;
15273;SDS011;7738;49.532;11.156;2022-11-20T06:23:48;28.67;;;14.23;;
15273;SDS011;7738;49.532;11.156;2022-11-20T06:26:22;32.70;;;14.03;;
15273;SDS011;7738;49.532;11.156;2022-11-20T06:31:24;25.60;;;11.23;;
15273;SDS011;7738;49.532;11.156;2022-11-20T06:33:55;27.77;;;11.53;;
15273;SDS011;7738;49.532;11.156;2022-11-20T06:36:25;27.27;;;13.43;;
15273;SDS011;7738;49.532;11.156;2022-11-20T06:38:55;30.23;;;13.07;;
15273;SDS011;7738;49.532;11.156;2022-11-20T06:41:28;26.17;;;12.40;;
15273;SDS011;7738;49.532;11.156;2022-11-20T06:43:58;32.43;;;13.13;;
15273;SDS011;7738;49.532;11.156;2022-11-20T06:46:28;29.30;;;13.10;;
15273;SDS011;7738;49.532;11.156;2022-11-20T06:48:58;26.33;;;12.13;;
15273;SDS011;7738;49.532;11.156;2022-11-20T06:51:29;25.13;;;13.27;;
15273;SDS011;7738;49.532;11.156;2022-11-20T06:54:00;35.47;;;19.50;;
15273;SDS011;7738;49.532;11.156;2022-11-20T06:56:32;27.80;;;13.30;;
15273;SDS011;7738;49.532;11.156;2022-11-20T06:59:03;34.00;;;16.23;;
15273;SDS011;7738;49.532;11.156;2022-11-20T07:01:34;24.60;;;12.43;;
15273;SDS011;7738;49.532;11.156;2022-11-20T07:04:04;30.00;;;12.27;;
15273;SDS011;7738;49.532;11.156;2022-11-20T07:06:34;26.47;;;12.97;;
15273;SDS011;7738;49.532;11.156;2022-11-20T07:09:04;27.37;;;12.70;;
15273;SDS011;7738;49.532;11.156;2022-11-20T07:11:41;25.77;;;12.40;;
15273;SDS011;7738;49.532;11.156;2022-11-20T07:14:11;28.80;;;12.87;;
15273;SDS011;7738;49.532;11.156;2022-11-20T07:16:41;24.37;;;10.77;;
15273;SDS011;7738;49.532;11.156;2022-11-20T07:19:11;33.47;;;11.80;;
15273;SDS011;7738;49.532;11.156;2022-11-20T07:21:41;27.13;;;12.13;;
15273;SDS011;7738;49.532;11.156;2022-11-20T07:24:11;21.83;;;11.40;;
15273;SDS011;7738;49.532;11.156;2022-11-20T07:26:45;25.20;;;11.67;;
15273;SDS011;7738;49.532;11.156;2022-11-20T07:29:15;33.30;;;13.37;;
15273;SDS011;7738;49.532;11.156;2022-11-20T07:31:46;41.30;;;14.40;;
15273;SDS011;7738;49.532;11.156;2022-11-20T07:34:16;26.97;;;11.77;;
15273;SDS011;7738;49.532;11.156;2022-11-20T07:36:46;26.33;;;10.70;;
15273;SDS011;7738;49.532;11.156;2022-11-20T07:39:17;24.50;;;11.73;;
15273;SDS011;7738;49.532;11.156;2022-11-20T07:41:50;18.63;;;9.80;;
15273;SDS011;7738;49.532;11.156;2022-11-20T07:44:20;17.30;;;8.90;;
15273;SDS011;7738;49.532;11.156;2022-11-20T07:46:50;19.20;;;10.33;;
15273;SDS011;7738;49.532;11.156;2022-11-20T07:49:20;18.27;;;9.23;;
15273;SDS011;7738;49.532;11.156;2022-11-20T07:51:50;22.70;;;11.27;;
15273;SDS011;7738;49.532;11.156;2022-11-20T07:54:27;20.60;;;10.00;;
15273;SDS011;7738;49.532;11.156;2022-11-20T07:56:59;21.00;;;12.40;;
15273;SDS011;7738;49.532;11.156;2022-11-20T07:59:29;22.47;;;11.77;;
15273;SDS011;7738;49.532;11.156;2022-11-20T08:02:00;21.13;;;10.53;;
15273;SDS011;7738;49.532;11.156;2022-11-20T08:04:30;24.00;;;10.70;;
15273;SDS011;7738;49.532;11.156;2022-11-20T08:07:00;20.90;;;10.60;;
15273;SDS011;7738;49.532;11.156;2022-11-20T08:09:30;17.33;;;9.90;;
15273;SDS011;7738;49.532;11.156;2022-11-20T08:12:03;29.50;;;13.03;;
15273;SDS011;7738;49.532;11.156;2022-11-20T08:14:46;22.63;;;11.87;;
15273;SDS011;7738;49.532;11.156;2022-11-20T08:17:16;28.50;;;11.87;;
15273;SDS011;7738;49.532;11.156;2022-11-20T08:19:46;20.83;;;11.63;;
15273;SDS011;7738;49.532;11.156;2022-11-20T08:22:17;24.73;;;11.10;;
15273;SDS011;7738;49.532;11.156;2022-11-20T08:24:51;22.00;;;11.57;;
15273;SDS011;7738;49.532;11.156;2022-11-20T08:27:24;19.85;;;11.73;;
15273;SDS011;7738;49.532;11.156;2022-11-20T08:29:54;21.53;;;10.73;;
15273;SDS011;7738;49.532;11.156;2022-11-20T08:32:24;20.67;;;11.00;;
15273;SDS011;7738;49.532;11.156;2022-11-20T08:34:54;18.53;;;10.00;;
15273;SDS011;7738;49.532;11.156;2022-11-20T08:37:24;21.23;;;11.77;;
15273;SDS011;7738;49.532;11.156;2022-11-20T08:39:55;23.17;;;11.47;;
15273;SDS011;7738;49.532;11.156;2022-11-20T08:42:28;20.33;;;11.57;;
15273;SDS011;7738;49.532;11.156;2022-11-20T08:44:58;19.93;;;10.57;;
15273;SDS011;7738;49.532;11.156;2022-11-20T08:47:29;22.77;;;12.07;;
15273;SDS011;7738;49.532;11.156;2022-11-20T08:49:59;19.87;;;10.70;;
15273;SDS011;7738;49.532;11.156;2022-11-20T08:52:30;25.83;;;11.57;;
15273;SDS011;7738;49.532;11.156;2022-11-20T08:55:06;21.67;;;10.53;;
15273;SDS011;7738;49.532;11.156;2022-11-20T08:57:39;23.00;;;10.40;;
15273;SDS011;7738;49.532;11.156;2022-11-20T09:00:16;21.70;;;11.03;;
15273;SDS011;7738;49.532;11.156;2022-11-20T09:02:46;17.30;;;9.27;;
15273;SDS011;7738;49.532;11.156;2022-11-20T09:05:16;22.67;;;10.17;;
15273;SDS011;7738;49.532;11.156;2022-11-20T09:07:47;19.53;;;9.60;;
15273;SDS011;7738;49.532;11.156;2022-11-20T09:10:17;19.80;;;9.00;;
15273;SDS011;7738;49.532;11.156;2022-11-20T09:12:53;21.88;;;9.95;;
15273;SDS011;7738;49.532;11.156;2022-11-20T09:15:24;19.40;;;10.83;;
15273;SDS011;7738;49.532;11.156;2022-11-20T09:17:55;20.17;;;9.07;;
15273;SDS011;7738;49.532;11.156;2022-11-20T09:20:27;14.60;;;7.27;;
15273;SDS011;7738;49.532;11.156;2022-11-20T09:22:58;14.33;;;8.60;;
15273;SDS011;7738;49.532;11.156;2022-11-20T09:25:28;17.13;;;9.03;;
15273;SDS011;7738;49.532;11.156;2022-11-20T09:28:01;19.43;;;9.67;;
15273;SDS011;7738;49.532;11.156;2022-11-20T09:30:32;21.80;;;9.90;;
15273;SDS011;7738;49.532;11.156;2022-11-20T09:33:03;16.00;;;8.77;;
15273;SDS011;7738;49.532;11.156;2022-11-20T09:35:34;18.70;;;9.50;;
15273;SDS011;7738;49.532;11.156;2022-11-20T09:38:05;18.40;;;9.37;;
15273;SDS011;7738;49.532;11.156;2022-11-20T09:40:38;19.60;;;8.60;;
15273;SDS011;7738;49.532;11.156;2022-11-20T09:43:17;24.50;;;10.13;;
15273;SDS011;7738;49.532;11.156;2022-11-20T09:45:54;18.40;;;8.90;;
15273;SDS011;7738;49.532;11.156;2022-11-20T09:48:37;17.93;;;8.80;;
15273;SDS011;7738;49.532;11.156;2022-11-20T09:51:20;16.93;;;8.47;;
15273;SDS011;7738;49.532;11.156;2022-11-20T09:54:01;16.43;;;8.20;;
15273;SDS011;7738;49.532;11.156;2022-11-20T09:56:45;18.90;;;8.90;;
15273;SDS011;7738;49.532;11.156;2022-11-20T10:01:55;20.53;;;9.30;;
15273;SDS011;7738;49.532;11.156;2022-11-20T10:04:25;16.47;;;9.30;;
15273;SDS011;7738;49.532;11.156;2022-11-20T10:07:10;17.30;;;9.80;;
15273;SDS011;7738;49.532;11.156;2022-11-20T10:10:00;21.67;;;12.27;;
15273;SDS011;7738;49.532;11.156;2022-11-20T10:12:33;19.07;;;10.90;;
15273;SDS011;7738;49.532;11.156;2022-11-20T10:15:15;23.80;;;11.10;;
15273;SDS011;7738;49.532;11.156;2022-11-20T10:18:11;29.47;;;15.47;;
15273;SDS011;7738;49.532;11.156;2022-11-20T10:20:54;25.67;;;13.87;;
15273;SDS011;7738;49.532;11.156;2022-11-20T10:26:34;23.83;;;12.27;;
15273;SDS011;7738;49.532;11.156;2022-11-20T10:29:12;23.80;;;13.43;;
15273;SDS011;7738;49.532;11.156;2022-11-20T10:31:47;22.50;;;12.87;;
15273;SDS011;7738;49.532;11.156;2022-11-20T10:34:22;23.20;;;13.90;;
15273;SDS011;7738;49.532;11.156;2022-11-20T10:36:55;19.80;;;11.10;;
15273;SDS011;7738;49.532;11.156;2022-11-20T10:39:32;23.73;;;13.30;;
15273;SDS011;7738;49.532;11.156;2022-11-20T10:42:08;22.40;;;11.93;;
15273;SDS011;7738;49.532;11.156;2022-11-20T10:44:41;23.10;;;12.43;;
15273;SDS011;7738;49.532;11.156;2022-11-20T10:47:35;26.33;;;14.30;;
15273;SDS011;7738;49.532;11.156;2022-11-20T10:50:05;27.90;;;14.70;;
15273;SDS011;7738;49.532;11.156;2022-11-20T10:52:50;24.93;;;13.37;;
15273;SDS011;7738;49.532;11.156;2022-11-20T10:55:27;24.07;;;12.43;;
15273;SDS011;7738;49.532;11.156;2022-11-20T10:58:04;21.87;;;12.10;;
15273;SDS011;7738;49.532;11.156;2022-11-20T11:00:43;24.53;;;12.83;;
15273;SDS011;7738;49.532;11.156;2022-11-20T11:03:22;23.30;;;13.90;;
15273;SDS011;7738;49.532;11.156;2022-11-20T11:05:56;24.97;;;13.83;;
15273;SDS011;7738;49.532;11.156;2022-11-20T11:08:35;18.42;;;9.73;;
15273;SDS011;7738;49.532;11.156;2022-11-20T11:11:10;19.73;;;9.38;;
15273;SDS011;7738;49.532;11.156;2022-11-20T11:13:49;21.52;;;13.05;;
15273;SDS011;7738;49.532;11.156;2022-11-20T11:16:20;21.00;;;13.07;;
15273;SDS011;7738;49.532;11.156;2022-11-20T11:19:02;25.00;;;13.90;;
15273;SDS011;7738;49.532;11.156;2022-11-20T11:21:33;21.58;;;11.05;;
15273;SDS011;7738;49.532;11.156;2022-11-20T11:24:14;22.52;;;11.88;;
15273;SDS011;7738;49.532;11.156;2022-11-20T11:27:12;19.23;;;10.82;;
15273;SDS011;7738;49.532;11.156;2022-11-20T11:29:44;21.52;;;11.30;;
15273;SDS011;7738;49.532;11.156;2022-11-20T11:32:15;15.80;;;9.17;;
15273;SDS011;7738;49.532;11.156;2022-11-20T11:35:01;18.37;;;10.60;;
15273;SDS011;7738;49.532;11.156;2022-11-20T11:40:04;17.27;;;8.67;;
15273;SDS011;7738;49.532;11.156;2022-11-20T11:42:52;14.03;;;8.67;;
15273;SDS011;7738;49.532;11.156;2022-11-20T11:45:25;15.55;;;9.07;;
15273;SDS011;7738;49.532;11.156;2022-11-20T11:47:54;15.20;;;7.80;;
15273;SDS011;7738;49.532;11.156;2022-11-20T11:50:29;13.13;;;7.63;;
15273;SDS011;7738;49.532;11.156;2022-11-20T11:53:05;14.23;;;7.80;;
15273;SDS011;7738;49.532;11.156;2022-11-20T11:55:40;10.90;;;7.50;;
15273;SDS011;7738;49.532;11.156;2022-11-20T11:58:19;13.88;;;7.13;;
15273;SDS011;7738;49.532;11.156;2022-11-20T12:01:03;11.03;;;6.73;;
15273;SDS011;7738;49.532;11.156;2022-11-20T12:03:38;14.95;;;7.78;;
15273;SDS011;7738;49.532;11.156;2022-11-20T12:06:14;17.75;;;7.88;;
15273;SDS011;7738;49.532;11.156;2022-11-20T12:08:47;10.63;;;5.97;;
15273;SDS011;7738;49.532;11.156;2022-11-20T12:11:23;10.77;;;6.45;;
15273;SDS011;7738;49.532;11.156;2022-11-20T12:14:00;14.23;;;8.73;;
15273;SDS011;7738;49.532;11.156;2022-11-20T12:16:40;14.55;;;8.13;;
15273;SDS011;7738;49.532;11.156;2022-11-20T12:19:11;12.93;;;8.15;;
15273;SDS011;7738;49.532;11.156;2022-11-20T12:21:49;15.05;;;9.02;;
15273;SDS011;7738;49.532;11.156;2022-11-20T12:24:39;12.43;;;7.60;;
15273;SDS011;7738;49.532;11.156;2022-11-20T12:27:26;12.03;;;7.07;;
15273;SDS011;7738;49.532;11.156;2022-11-20T12:30:13;10.48;;;6.40;;
15273;SDS011;7738;49.532;11.156;2022-11-20T12:33:01;8.27;;;6.20;;
15273;SDS011;7738;49.532;11.156;2022-11-20T12:35:44;11.80;;;6.90;;
15273;SDS011;7738;49.532;11.156;2022-11-20T12:38:34;14.65;;;9.07;;
15273;SDS011;7738;49.532;11.156;2022-11-20T12:41:20;18.37;;;13.17;;
15273;SDS011;7738;49.532;11.156;2022-11-20T12:44:18;34.23;;;23.43;;
15273;SDS011;7738;49.532;11.156;2022-11-20T12:47:09;23.63;;;15.20;;
15273;SDS011;7738;49.532;11.156;2022-11-20T12:49:52;31.70;;;15.93;;
15273;SDS011;7738;49.532;11.156;2022-11-20T12:52:35;13.23;;;7.60;;
15273;SDS011;7738;49.532;11.156;2022-11-20T12:55:15;11.77;;;9.23;;
15273;SDS011;7738;49.532;11.156;2022-11-20T12:57:54;11.80;;;8.20;;
15273;SDS011;7738;49.532;11.156;2022-11-20T13:00:27;18.97;;;12.57;;
15273;SDS011;7738;49.532;11.156;2022-11-20T13:03:13;11.38;;;7.22;;
15273;SDS011;7738;49.532;11.156;2022-11-20T13:05:59;14.57;;;9.60;;
15273;SDS011;7738;49.532;11.156;2022-11-20T13:08:39;12.10;;;6.43;;
15273;SDS011;7738;49.532;11.156;2022-11-20T13:11:14;10.70;;;5.87;;
15273;SDS011;7738;49.532;11.156;2022-11-20T13:13:55;14.73;;;8.90;;
15273;SDS011;7738;49.532;11.156;2022-11-20T13:16:41;16.93;;;11.77;;
15273;SDS011;7738;49.532;11.156;2022-11-20T13:19:18;13.80;;;8.17;;
15273;SDS011;7738;49.532;11.156;2022-11-20T13:21:49;13.73;;;8.23;;
15273;SDS011;7738;49.532;11.156;2022-11-20T13:24:21;14.33;;;8.73;;
15273;SDS011;7738;49.532;11.156;2022-11-20T13:27:05;12.37;;;7.87;;
15273;SDS011;7738;49.532;11.156;2022-11-20T13:32:47;15.45;;;8.27;;
15273;SDS011;7738;49.532;11.156;2022-11-20T13:35:28;14.47;;;8.33;;
15273;SDS011;7738;49.532;11.156;2022-11-20T13:38:04;16.23;;;9.83;;
15273;SDS011;7738;49.532;11.156;2022-11-20T13:40:39;19.50;;;10.57;;
15273;SDS011;7738;49.532;11.156;2022-11-20T13:43:34;15.57;;;9.38;;
15273;SDS011;7738;49.532;11.156;2022-11-20T13:46:07;19.40;;;9.67;;
15273;SDS011;7738;49.532;11.156;2022-11-20T13:48:39;15.07;;;9.57;;
15273;SDS011;7738;49.532;11.156;2022-11-20T13:51:16;13.93;;;8.60;;
15273;SDS011;7738;49.532;11.156;2022-11-20T13:56:59;12.60;;;8.53;;
15273;SDS011;7738;49.532;11.156;2022-11-20T13:59:43;15.73;;;9.00;;
15273;SDS011;7738;49.532;11.156;2022-11-20T14:02:23;14.47;;;8.50;;
15273;SDS011;7738;49.532;11.156;2022-11-20T14:04:56;20.45;;;10.15;;
15273;SDS011;7738;49.532;11.156;2022-11-20T14:07:31;15.93;;;8.50;;
15273;SDS011;7738;49.532;11.156;2022-11-20T14:10:18;15.97;;;9.63;;
15273;SDS011;7738;49.532;11.156;2022-11-20T14:12:57;16.33;;;10.07;;
15273;SDS011;7738;49.532;11.156;2022-11-20T14:15:33;17.60;;;9.57;;
15273;SDS011;7738;49.532;11.156;2022-11-20T14:18:12;19.10;;;9.43;;
15273;SDS011;7738;49.532;11.156;2022-11-20T14:20:43;24.70;;;11.73;;
15273;SDS011;7738;49.532;11.156;2022-11-20T14:23:22;17.73;;;9.63;;
15273;SDS011;7738;49.532;11.156;2022-11-20T14:25:55;22.47;;;10.37;;
15273;SDS011;7738;49.532;11.156;2022-11-20T14:28:26;18.07;;;11.10;;
15273;SDS011;7738;49.532;11.156;2022-11-20T14:31:00;17.67;;;9.60;;
15273;SDS011;7738;49.532;11.156;2022-11-20T14:33:30;22.83;;;11.97;;
15273;SDS011;7738;49.532;11.156;2022-11-20T14:36:02;20.63;;;11.50;;
15273;SDS011;7738;49.532;11.156;2022-11-20T14:38:33;18.50;;;10.97;;
15273;SDS011;7738;49.532;11.156;2022-11-20T14:41:06;21.97;;;11.50;;
15273;SDS011;7738;49.532;11.156;2022-11-20T14:43:37;23.15;;;11.88;;
15273;SDS011;7738;49.532;11.156;2022-11-20T14:46:10;24.70;;;15.63;;
15273;SDS011;7738;49.532;11.156;2022-11-20T14:48:41;20.20;;;12.13;;
15273;SDS011;7738;49.532;11.156;2022-11-20T14:51:28;21.52;;;12.27;;
15273;SDS011;7738;49.532;11.156;2022-11-20T14:54:08;19.33;;;11.03;;
15273;SDS011;7738;49.532;11.156;2022-11-20T14:56:39;26.33;;;14.13;;
15273;SDS011;7738;49.532;11.156;2022-11-20T14:59:09;32.47;;;16.77;;
15273;SDS011;7738;49.532;11.156;2022-11-20T15:01:42;26.87;;;13.80;;
15273;SDS011;7738;49.532;11.156;2022-11-20T15:04:25;23.45;;;13.73;;
15273;SDS011;7738;49.532;11.156;2022-11-20T15:06:56;26.83;;;14.97;;
15273;SDS011;7738;49.532;11.156;2022-11-20T15:09:27;27.93;;;15.50;;
15273;SDS011;7738;49.532;11.156;2022-11-20T15:11:58;22.00;;;13.13;;
15273;SDS011;7738;49.532;11.156;2022-11-20T15:14:31;26.67;;;12.65;;
15273;SDS011;7738;49.532;11.156;2022-11-20T15:17:04;21.73;;;13.10;;
15273;SDS011;7738;49.532;11.156;2022-11-20T15:19:38;28.27;;;13.50;;
15273;SDS011;7738;49.532;11.156;2022-11-20T15:22:12;26.37;;;15.67;;